sensor_id;sensor_type;location;lat;lon;timestamp;pressure;altitude;pressure_sealevel;temperature;humidity
49841;BME280;35738;49.890;5.930;2022-11-04T00:02:02;94643.28;;;5.73;100.00
49841;BME280;35738;49.890;5.930;2022-11-04T00:04:29;94640.72;;;5.77;100.00
49841;BME280;35738;49.890;5.930;2022-11-04T00:06:56;94647.44;;;5.79;100.00
49841;BME280;35738;49.890;5.930;2022-11-04T00:09:25;94652.56;;;5.81;100.00
49841;BME280;35738;49.890;5.930;2022-11-04T00:11:53;94650.44;;;5.86;100.00
49841;BME280;35738;49.890;5.930;2022-11-04T00:14:46;94662.16;;;5.87;100.00
49841;BME280;35738;49.890;5.930;2022-11-04T00:17:12;94656.56;;;5.83;100.00
49841;BME280;35738;49.890;5.930;2022-11-04T00:19:46;94650.31;;;5.83;100.00
49841;BME280;35738;49.890;5.930;2022-11-04T00:22:33;94664.00;;;5.74;100.00
49841;BME280;35738;49.890;5.930;2022-11-04T00:25:18;94654.88;;;5.70;100.00
49841;BME280;35738;49.890;5.930;2022-11-04T00:28:11;94669.16;;;5.67;100.00
49841;BME280;35738;49.890;5.930;2022-11-04T00:30:58;94657.97;;;5.60;100.00
49841;BME280;35738;49.890;5.930;2022-11-04T00:33:49;94657.97;;;5.60;100.00
49841;BME280;35738;49.890;5.930;2022-11-04T00:36:16;94654.25;;;5.64;100.00
49841;BME280;35738;49.890;5.930;2022-11-04T00:38:43;94652.78;;;5.67;100.00
49841;BME280;35738;49.890;5.930;2022-11-04T00:41:10;94661.44;;;5.69;100.00
49841;BME280;35738;49.890;5.930;2022-11-04T00:43:56;94656.28;;;5.76;100.00
49841;BME280;35738;49.890;5.930;2022-11-04T00:46:24;94654.81;;;5.79;100.00
49841;BME280;35738;49.890;5.930;2022-11-04T00:48:51;94654.81;;;5.79;100.00
49841;BME280;35738;49.890;5.930;2022-11-04T00:51:17;94660.94;;;5.75;100.00
49841;BME280;35738;49.890;5.930;2022-11-04T00:53:45;94651.63;;;5.77;100.00
49841;BME280;35738;49.890;5.930;2022-11-04T00:56:11;94646.16;;;5.77;100.00
49841;BME280;35738;49.890;5.930;2022-11-04T00:58:38;94665.72;;;5.79;100.00
49841;BME280;35738;49.890;5.930;2022-11-04T01:01:09;94640.06;;;5.80;100.00
49841;BME280;35738;49.890;5.930;2022-11-04T01:03:36;94651.63;;;5.77;100.00
49841;BME280;35738;49.890;5.930;2022-11-04T01:06:03;94657.56;;;5.79;100.00
49841;BME280;35738;49.890;5.930;2022-11-04T01:08:30;94658.81;;;5.81;100.00
49841;BME280;35738;49.890;5.930;2022-11-04T01:11:03;94667.34;;;5.80;100.00
49841;BME280;35738;49.890;5.930;2022-11-04T01:13:30;94674.72;;;5.79;100.00
49841;BME280;35738;49.890;5.930;2022-11-04T01:16:01;94671.00;;;5.84;100.00
49841;BME280;35738;49.890;5.930;2022-11-04T01:18:28;94674.53;;;5.84;100.00
49841;BME280;35738;49.890;5.930;2022-11-04T01:21:00;94667.16;;;5.85;100.00
49841;BME280;35738;49.890;5.930;2022-11-04T01:23:27;94675.97;;;5.90;100.00
49841;BME280;35738;49.890;5.930;2022-11-04T01:25:53;94672.75;;;5.88;100.00
49841;BME280;35738;49.890;5.930;2022-11-04T01:28:20;94674.84;;;5.91;100.00
49841;BME280;35738;49.890;5.930;2022-11-04T01:30:47;94678.03;;;5.93;100.00
49841;BME280;35738;49.890;5.930;2022-11-04T01:33:13;94675.66;;;5.92;100.00
49841;BME280;35738;49.890;5.930;2022-11-04T01:35:40;94672.59;;;5.93;100.00
49841;BME280;35738;49.890;5.930;2022-11-04T01:38:06;94673.72;;;5.92;100.00
49841;BME280;35738;49.890;5.930;2022-11-04T01:40:38;94674.19;;;5.94;100.00
49841;BME280;35738;49.890;5.930;2022-11-04T01:43:16;94660.06;;;5.92;100.00
49841;BME280;35738;49.890;5.930;2022-11-04T01:45:59;94659.09;;;5.88;100.00
49841;BME280;35738;49.890;5.930;2022-11-04T01:48:32;94669.38;;;5.91;100.00
49841;BME280;35738;49.890;5.930;2022-11-04T01:50:59;94665.88;;;5.91;100.00
49841;BME280;35738;49.890;5.930;2022-11-04T01:53:32;94662.63;;;5.89;100.00
49841;BME280;35738;49.890;5.930;2022-11-04T01:56:02;94663.28;;;5.94;100.00
49841;BME280;35738;49.890;5.930;2022-11-04T01:58:32;94662.81;;;5.92;100.00
49841;BME280;35738;49.890;5.930;2022-11-04T02:01:00;94660.06;;;5.92;100.00
49841;BME280;35738;49.890;5.930;2022-11-04T02:03:33;94653.81;;;5.92;100.00
49841;BME280;35738;49.890;5.930;2022-11-04T02:24:08;94623.81;;;5.92;100.00
49841;BME280;35738;49.890;5.930;2022-11-04T02:30:05;94619.16;;;5.92;100.00
49841;BME280;35738;49.890;5.930;2022-11-04T02:37:53;94623.16;;;5.95;100.00
49841;BME280;35738;49.890;5.930;2022-11-04T02:40:25;94623.16;;;5.95;100.00
49841;BME280;35738;49.890;5.930;2022-11-04T02:45:51;94617.38;;;5.96;100.00
49841;BME280;35738;49.890;5.930;2022-11-04T02:48:30;94622.84;;;5.96;100.00
49841;BME280;35738;49.890;5.930;2022-11-04T02:53:37;94610.78;;;5.97;100.00
49841;BME280;35738;49.890;5.930;2022-11-04T02:56:08;94607.25;;;5.97;100.00
49841;BME280;35738;49.890;5.930;2022-11-04T02:58:49;94599.88;;;5.97;100.00
49841;BME280;35738;49.890;5.930;2022-11-04T03:01:18;94599.41;;;5.95;100.00
49841;BME280;35738;49.890;5.930;2022-11-04T03:03:54;94596.03;;;5.98;100.00
49841;BME280;35738;49.890;5.930;2022-11-04T03:06:23;94594.88;;;5.99;100.00
49841;BME280;35738;49.890;5.930;2022-11-04T03:08:52;94590.91;;;5.97;100.00
49841;BME280;35738;49.890;5.930;2022-11-04T03:11:24;94594.88;;;5.99;100.00
49841;BME280;35738;49.890;5.930;2022-11-04T03:14:05;94593.28;;;5.98;100.00
49841;BME280;35738;49.890;5.930;2022-11-04T03:16:38;94587.03;;;5.98;100.00
49841;BME280;35738;49.890;5.930;2022-11-04T03:19:13;94592.81;;;5.96;100.00
49841;BME280;35738;49.890;5.930;2022-11-04T03:21:54;94584.97;;;5.95;100.00
49841;BME280;35738;49.890;5.930;2022-11-04T03:24:23;94586.06;;;5.94;100.00
49841;BME280;35738;49.890;5.930;2022-11-04T03:27:05;94577.59;;;5.95;100.00
49841;BME280;35738;49.890;5.930;2022-11-04T03:29:45;94572.91;;;5.96;100.00
49841;BME280;35738;49.890;5.930;2022-11-04T03:34:51;94577.41;;;5.92;100.00
49841;BME280;35738;49.890;5.930;2022-11-04T03:37:18;94578.03;;;5.89;100.00
49841;BME280;35738;49.890;5.930;2022-11-04T03:39:44;94571.00;;;5.88;100.00
49841;BME280;35738;49.890;5.930;2022-11-04T03:42:13;94576.44;;;5.88;100.00
49841;BME280;35738;49.890;5.930;2022-11-04T03:44:51;94570.69;;;5.89;100.00
49841;BME280;35738;49.890;5.930;2022-11-04T03:47:21;94569.56;;;5.90;100.00
49841;BME280;35738;49.890;5.930;2022-11-04T03:49:52;94577.25;;;5.88;100.00
49841;BME280;35738;49.890;5.930;2022-11-04T03:52:21;94572.59;;;5.89;100.00
49841;BME280;35738;49.890;5.930;2022-11-04T03:54:48;94576.44;;;5.88;100.00
49841;BME280;35738;49.890;5.930;2022-11-04T04:00:05;94579.69;;;5.90;100.00
49841;BME280;35738;49.890;5.930;2022-11-04T04:08:36;94579.00;;;5.93;100.00
49841;BME280;35738;49.890;5.930;2022-11-04T04:17:04;94584.47;;;5.93;100.00
49841;BME280;35738;49.890;5.930;2022-11-04T04:19:32;94578.38;;;5.96;100.00
49841;BME280;35738;49.890;5.930;2022-11-04T04:22:08;94584.13;;;5.94;100.00
49841;BME280;35738;49.890;5.930;2022-11-04T04:24:39;94576.63;;;5.91;100.00
49841;BME280;35738;49.890;5.930;2022-11-04T04:27:27;94569.06;;;5.88;100.00
49841;BME280;35738;49.890;5.930;2022-11-04T04:30:08;94571.97;;;5.92;100.00
49841;BME280;35738;49.890;5.930;2022-11-04T04:32:51;94558.34;;;5.83;100.00
49841;BME280;35738;49.890;5.930;2022-11-04T04:35:25;94555.28;;;5.85;100.00
49841;BME280;35738;49.890;5.930;2022-11-04T04:38:21;94555.16;;;5.81;100.00
49841;BME280;35738;49.890;5.930;2022-11-04T04:41:18;94545.50;;;5.84;100.00
49841;BME280;35738;49.890;5.930;2022-11-04T04:44:12;94551.75;;;5.84;100.00
49841;BME280;35738;49.890;5.930;2022-11-04T04:47:00;94546.31;;;5.84;100.00
49841;BME280;35738;49.890;5.930;2022-11-04T04:49:28;94550.97;;;5.84;100.00
49841;BME280;35738;49.890;5.930;2022-11-04T04:52:06;94560.59;;;5.81;100.00
49841;BME280;35738;49.890;5.930;2022-11-04T04:54:33;94549.22;;;5.79;100.00
49841;BME280;35738;49.890;5.930;2022-11-04T04:56:59;94547.16;;;5.76;100.00
49841;BME280;35738;49.890;5.930;2022-11-04T04:59:26;94543.03;;;5.70;100.00
49841;BME280;35738;49.890;5.930;2022-11-04T05:01:52;94546.88;;;5.69;100.00
49841;BME280;35738;49.890;5.930;2022-11-04T05:04:19;94538.22;;;5.67;100.00
49841;BME280;35738;49.890;5.930;2022-11-04T05:06:46;94535.97;;;5.69;100.00
49841;BME280;35738;49.890;5.930;2022-11-04T05:09:13;94540.97;;;5.67;100.00
49841;BME280;35738;49.890;5.930;2022-11-04T05:11:39;94538.22;;;5.67;100.00
49841;BME280;35738;49.890;5.930;2022-11-04T05:14:06;94545.28;;;5.68;100.00
49841;BME280;35738;49.890;5.930;2022-11-04T05:16:32;94540.97;;;5.67;100.00
49841;BME280;35738;49.890;5.930;2022-11-04T05:19:06;94539.69;;;5.64;100.00
49841;BME280;35738;49.890;5.930;2022-11-04T05:21:32;94537.31;;;5.63;100.00
49841;BME280;35738;49.890;5.930;2022-11-04T05:23:59;94532.03;;;5.58;100.00
49841;BME280;35738;49.890;5.930;2022-11-04T05:26:25;94530.44;;;5.57;100.00
49841;BME280;35738;49.890;5.930;2022-11-04T05:28:52;94525.44;;;5.59;100.00
49841;BME280;35738;49.890;5.930;2022-11-04T05:31:19;94522.25;;;5.57;100.00
49841;BME280;35738;49.890;5.930;2022-11-04T05:33:45;94516.81;;;5.57;100.00
49841;BME280;35738;49.890;5.930;2022-11-04T05:36:14;94517.28;;;5.59;100.00
49841;BME280;35738;49.890;5.930;2022-11-04T05:38:41;94529.78;;;5.60;100.00
49841;BME280;35738;49.890;5.930;2022-11-04T05:41:10;94526.25;;;5.59;100.00
49841;BME280;35738;49.890;5.930;2022-11-04T05:43:39;94540.34;;;5.61;100.00
49841;BME280;35738;49.890;5.930;2022-11-04T05:46:05;94545.81;;;5.61;100.00
49841;BME280;35738;49.890;5.930;2022-11-04T05:48:32;94538.91;;;5.64;100.00
49841;BME280;35738;49.890;5.930;2022-11-04T05:51:05;94531.19;;;5.66;100.00
49841;BME280;35738;49.890;5.930;2022-11-04T05:53:32;94537.31;;;5.63;100.00
49841;BME280;35738;49.890;5.930;2022-11-04T05:55:59;94533.91;;;5.66;100.00
49841;BME280;35738;49.890;5.930;2022-11-04T05:58:25;94528.00;;;5.64;100.00
49841;BME280;35738;49.890;5.930;2022-11-04T06:00:52;94530.25;;;5.62;100.00
49841;BME280;35738;49.890;5.930;2022-11-04T06:03:18;94530.25;;;5.62;100.00
49841;BME280;35738;49.890;5.930;2022-11-04T06:05:45;94530.72;;;5.64;100.00
49841;BME280;35738;49.890;5.930;2022-11-04T06:08:12;94533.44;;;5.64;100.00
49841;BME280;35738;49.890;5.930;2022-11-04T06:10:38;94539.84;;;5.68;100.00
49841;BME280;35738;49.890;5.930;2022-11-04T06:13:05;94544.63;;;5.71;100.00
49841;BME280;35738;49.890;5.930;2022-11-04T06:15:32;94536.09;;;5.72;100.00
49841;BME280;35738;49.890;5.930;2022-11-04T06:17:58;94545.56;;;5.75;100.00
49841;BME280;35738;49.890;5.930;2022-11-04T06:20:25;94544.44;;;5.76;100.00
49841;BME280;35738;49.890;5.930;2022-11-04T06:22:51;94542.84;;;5.75;100.00
49841;BME280;35738;49.890;5.930;2022-11-04T06:25:18;94548.75;;;5.77;100.00
49841;BME280;35738;49.890;5.930;2022-11-04T06:27:45;94553.09;;;5.78;100.00
49841;BME280;35738;49.890;5.930;2022-11-04T06:30:12;94546.03;;;5.77;100.00
49841;BME280;35738;49.890;5.930;2022-11-04T06:32:39;94556.28;;;5.80;100.00
49841;BME280;35738;49.890;5.930;2022-11-04T06:35:06;94555.16;;;5.81;100.00
49841;BME280;35738;49.890;5.930;2022-11-04T06:37:34;94557.53;;;5.83;100.00
49841;BME280;35738;49.890;5.930;2022-11-04T06:40:01;94560.59;;;5.81;100.00
49841;BME280;35738;49.890;5.930;2022-11-04T06:42:27;94560.59;;;5.81;100.00
49841;BME280;35738;49.890;5.930;2022-11-04T06:44:54;94567.66;;;5.82;100.00
49841;BME280;35738;49.890;5.930;2022-11-04T06:47:20;94565.72;;;5.83;100.00
49841;BME280;35738;49.890;5.930;2022-11-04T06:49:50;94569.72;;;5.85;100.00
49841;BME280;35738;49.890;5.930;2022-11-04T06:52:17;94576.78;;;5.86;100.00
49841;BME280;35738;49.890;5.930;2022-11-04T06:54:43;94578.88;;;5.89;100.00
49841;BME280;35738;49.890;5.930;2022-11-04T06:57:10;94579.69;;;5.90;100.00
49841;BME280;35738;49.890;5.930;2022-11-04T06:59:37;94591.38;;;5.90;100.00
49841;BME280;35738;49.890;5.930;2022-11-04T07:02:04;94580.13;;;5.92;100.00
49841;BME280;35738;49.890;5.930;2022-11-04T07:04:31;94591.84;;;5.92;100.00
49841;BME280;35738;49.890;5.930;2022-11-04T07:06:58;94596.97;;;5.94;100.00
49841;BME280;35738;49.890;5.930;2022-11-04T07:09:24;94593.16;;;5.95;100.00
49841;BME280;35738;49.890;5.930;2022-11-04T07:11:51;94588.50;;;5.95;100.00
49841;BME280;35738;49.890;5.930;2022-11-04T07:14:18;94601.00;;;5.96;100.00
49841;BME280;35738;49.890;5.930;2022-11-04T07:16:44;94596.34;;;5.97;100.00
49841;BME280;35738;49.890;5.930;2022-11-04T07:19:11;94601.34;;;5.95;100.00
49841;BME280;35738;49.890;5.930;2022-11-04T07:21:37;94602.31;;;5.90;100.00
49841;BME280;35738;49.890;5.930;2022-11-04T07:24:04;94607.59;;;5.87;100.00
49841;BME280;35738;49.890;5.930;2022-11-04T07:26:31;94608.38;;;5.87;100.00
49841;BME280;35738;49.890;5.930;2022-11-04T07:28:58;94614.00;;;5.91;100.00
49841;BME280;35738;49.890;5.930;2022-11-04T07:31:26;94605.16;;;5.94;100.00
49841;BME280;35738;49.890;5.930;2022-11-04T07:33:53;94609.81;;;5.93;100.00
49841;BME280;35738;49.890;5.930;2022-11-04T07:36:20;94619.63;;;5.94;100.00
49841;BME280;35738;49.890;5.930;2022-11-04T07:38:47;94623.97;;;5.95;100.00
49841;BME280;35738;49.890;5.930;2022-11-04T07:41:15;94628.63;;;5.95;100.00
49841;BME280;35738;49.890;5.930;2022-11-04T07:43:47;94622.84;;;5.96;100.00
49841;BME280;35738;49.890;5.930;2022-11-04T07:46:13;94633.09;;;5.99;100.00
49841;BME280;35738;49.890;5.930;2022-11-04T07:48:40;94635.16;;;6.02;100.00
49841;BME280;35738;49.890;5.930;2022-11-04T07:51:08;94637.56;;;6.04;100.00
49841;BME280;35738;49.890;5.930;2022-11-04T07:53:36;94637.69;;;6.08;100.00
49841;BME280;35738;49.890;5.930;2022-11-04T07:56:04;94636.25;;;6.10;100.00
49841;BME280;35738;49.890;5.930;2022-11-04T07:58:32;94636.38;;;6.14;100.00
49841;BME280;35738;49.890;5.930;2022-11-04T08:01:00;94638.44;;;6.17;100.00
49841;BME280;35738;49.890;5.930;2022-11-04T08:03:27;94641.63;;;6.19;100.00
49841;BME280;35738;49.890;5.930;2022-11-04T08:05:59;94649.03;;;6.18;100.00
49841;BME280;35738;49.890;5.930;2022-11-04T08:08:27;94657.06;;;6.15;100.00
49841;BME280;35738;49.890;5.930;2022-11-04T08:10:57;94649.88;;;6.10;100.00
49841;BME280;35738;49.890;5.930;2022-11-04T08:13:27;94666.78;;;6.03;100.00
49841;BME280;35738;49.890;5.930;2022-11-04T08:15:54;94662.13;;;6.04;100.00
49841;BME280;35738;49.890;5.930;2022-11-04T08:18:21;94659.88;;;6.06;100.00
49841;BME280;35738;49.890;5.930;2022-11-04T08:20:49;94676.38;;;6.10;100.00
49841;BME280;35738;49.890;5.930;2022-11-04T08:23:17;94670.91;;;6.10;100.00
49841;BME280;35738;49.890;5.930;2022-11-04T08:25:44;94670.78;;;6.06;100.00
49841;BME280;35738;49.890;5.930;2022-11-04T08:28:11;94675.13;;;6.07;100.00
49841;BME280;35738;49.890;5.930;2022-11-04T08:31:03;94675.13;;;6.07;100.00
49841;BME280;35738;49.890;5.930;2022-11-04T08:33:31;94675.59;;;6.09;100.00
49841;BME280;35738;49.890;5.930;2022-11-04T08:36:07;94673.47;;;6.15;100.00
49841;BME280;35738;49.890;5.930;2022-11-04T08:38:35;94679.84;;;6.19;100.00
49841;BME280;35738;49.890;5.930;2022-11-04T08:41:03;94670.88;;;6.18;100.00
49841;BME280;35738;49.890;5.930;2022-11-04T08:43:30;94665.06;;;6.20;100.00
49841;BME280;35738;49.890;5.930;2022-11-04T08:45:57;94674.41;;;6.19;100.00
49841;BME280;35738;49.890;5.930;2022-11-04T08:48:24;94667.16;;;6.23;100.00
49841;BME280;35738;49.890;5.930;2022-11-04T08:50:53;94668.94;;;6.19;100.00
49841;BME280;35738;49.890;5.930;2022-11-04T08:53:20;94666.34;;;6.22;100.00
49841;BME280;35738;49.890;5.930;2022-11-04T08:55:47;94677.41;;;6.26;100.00
49841;BME280;35738;49.890;5.930;2022-11-04T08:58:14;94657.63;;;6.29;100.00
49841;BME280;35738;49.890;5.930;2022-11-04T09:00:41;94665.63;;;6.34;100.00
49841;BME280;35738;49.890;5.930;2022-11-04T09:03:08;94666.56;;;6.38;100.00
49841;BME280;35738;49.890;5.930;2022-11-04T09:05:37;94672.16;;;6.42;100.00
49841;BME280;35738;49.890;5.930;2022-11-04T09:08:15;94672.75;;;6.47;100.00
49841;BME280;35738;49.890;5.930;2022-11-04T09:10:43;94682.34;;;6.53;100.00
49841;BME280;35738;49.890;5.930;2022-11-04T09:13:11;94683.63;;;6.56;100.00
49841;BME280;35738;49.890;5.930;2022-11-04T09:15:38;94687.59;;;6.58;100.00
49841;BME280;35738;49.890;5.930;2022-11-04T09:18:05;94683.41;;;6.61;100.00
49841;BME280;35738;49.890;5.930;2022-11-04T09:20:33;94679.63;;;6.53;100.00
49841;BME280;35738;49.890;5.930;2022-11-04T09:22:59;94681.34;;;6.58;100.00
49841;BME280;35738;49.890;5.930;2022-11-04T09:25:26;94681.81;;;6.60;100.00
49841;BME280;35738;49.890;5.930;2022-11-04T09:27:53;94679.09;;;6.60;100.00
49841;BME280;35738;49.890;5.930;2022-11-04T09:30:19;94690.16;;;6.63;100.00
49841;BME280;35738;49.890;5.930;2022-11-04T09:32:46;94689.69;;;6.61;100.00
49841;BME280;35738;49.890;5.930;2022-11-04T09:35:18;94693.22;;;6.62;100.00
49841;BME280;35738;49.890;5.930;2022-11-04T09:37:45;94702.66;;;6.64;100.00
49841;BME280;35738;49.890;5.930;2022-11-04T09:40:20;94700.22;;;6.72;100.00
49841;BME280;35738;49.890;5.930;2022-11-04T09:45:16;94700.03;;;6.77;100.00
49841;BME280;35738;49.890;5.930;2022-11-04T09:47:50;94705.97;;;6.79;100.00
49841;BME280;35738;49.890;5.930;2022-11-04T09:50:31;94703.38;;;6.82;100.00
49841;BME280;35738;49.890;5.930;2022-11-04T09:53:08;94703.69;;;6.81;100.00
49841;BME280;35738;49.890;5.930;2022-11-04T09:55:48;94699.56;;;6.75;100.00
49841;BME280;35738;49.890;5.930;2022-11-04T09:58:16;94704.69;;;6.76;100.00
49841;BME280;35738;49.890;5.930;2022-11-04T10:00:48;94697.31;;;6.77;100.00
49841;BME280;35738;49.890;5.930;2022-11-04T10:03:27;94699.09;;;6.73;100.00
49841;BME280;35738;49.890;5.930;2022-11-04T10:06:24;94708.16;;;6.85;100.00
49841;BME280;35738;49.890;5.930;2022-11-04T10:09:30;94715.34;;;6.90;100.00
49841;BME280;35738;49.890;5.930;2022-11-04T10:14:43;94709.50;;;6.79;100.00
49841;BME280;35738;49.890;5.930;2022-11-04T10:22:48;94718.16;;;6.81;100.00
49841;BME280;35738;49.890;5.930;2022-11-04T10:25:22;94718.28;;;6.85;100.00
49841;BME280;35738;49.890;5.930;2022-11-04T10:27:51;94715.41;;;7.02;100.00
49841;BME280;35738;49.890;5.930;2022-11-04T10:30:20;94709.94;;;7.02;100.00
49841;BME280;35738;49.890;5.930;2022-11-04T10:38:18;94718.28;;;7.06;100.00
49841;BME280;35738;49.890;5.930;2022-11-04T10:40:49;94725.47;;;7.10;100.00
49841;BME280;35738;49.890;5.930;2022-11-04T10:43:23;94726.84;;;7.16;100.00
49841;BME280;35738;49.890;5.930;2022-11-04T10:51:55;94740.91;;;7.27;100.00
49841;BME280;35738;49.890;5.930;2022-11-04T10:54:24;94739.31;;;7.26;100.00
49841;BME280;35738;49.890;5.930;2022-11-04T10:56:53;94743.56;;;7.36;100.00
49841;BME280;35738;49.890;5.930;2022-11-04T10:59:22;94738.84;;;7.45;100.00
49841;BME280;35738;49.890;5.930;2022-11-04T11:04:35;94754.59;;;7.48;100.00
49841;BME280;35738;49.890;5.930;2022-11-04T11:07:04;94751.38;;;7.46;100.00
49841;BME280;35738;49.890;5.930;2022-11-04T11:09:35;94758.25;;;7.31;100.00
49841;BME280;35738;49.890;5.930;2022-11-04T11:14:51;94763.63;;;6.86;100.00
49841;BME280;35738;49.890;5.930;2022-11-04T11:25:27;94758.09;;;6.65;100.00
49841;BME280;35738;49.890;5.930;2022-11-04T11:28:10;94761.69;;;6.86;100.00
49841;BME280;35738;49.890;5.930;2022-11-04T11:31:00;94758.28;;;6.89;100.00
49841;BME280;35738;49.890;5.930;2022-11-04T11:33:32;94763.81;;;6.81;100.00
49841;BME280;35738;49.890;5.930;2022-11-04T11:38:28;94764.47;;;6.78;100.00
49841;BME280;35738;49.890;5.930;2022-11-04T11:43:52;94772.44;;;6.62;100.00
49841;BME280;35738;49.890;5.930;2022-11-04T11:46:21;94773.34;;;6.75;100.00
49841;BME280;35738;49.890;5.930;2022-11-04T11:48:57;94776.94;;;6.87;100.00
49841;BME280;35738;49.890;5.930;2022-11-04T11:51:34;94772.09;;;6.93;100.00
49841;BME280;35738;49.890;5.930;2022-11-04T11:54:21;94773.69;;;6.94;100.00
49841;BME280;35738;49.890;5.930;2022-11-04T11:56:52;94766.00;;;6.87;100.00
49841;BME280;35738;49.890;5.930;2022-11-04T12:00:03;94789.22;;;7.02;100.00
49841;BME280;35738;49.890;5.930;2022-11-04T12:11:52;94788.63;;;7.17;100.00
49841;BME280;35738;49.890;5.930;2022-11-04T12:14:38;94783.88;;;7.26;100.00
49841;BME280;35738;49.890;5.930;2022-11-04T12:22:51;94791.88;;;7.31;100.00
49841;BME280;35738;49.890;5.930;2022-11-04T12:25:26;94792.47;;;7.37;100.00
49841;BME280;35738;49.890;5.930;2022-11-04T12:28:06;94800.19;;;7.56;100.00
49841;BME280;35738;49.890;5.930;2022-11-04T12:31:40;94804.38;;;7.74;100.00
49841;BME280;35738;49.890;5.930;2022-11-04T12:34:29;94805.41;;;7.82;100.00
49841;BME280;35738;49.890;5.930;2022-11-04T12:39:27;94808.25;;;7.73;100.00
49841;BME280;35738;49.890;5.930;2022-11-04T12:42:05;94813.03;;;7.76;100.00
49841;BME280;35738;49.890;5.930;2022-11-04T12:44:52;94806.69;;;7.84;100.00
49841;BME280;35738;49.890;5.930;2022-11-04T12:47:38;94813.16;;;7.80;100.00
49841;BME280;35738;49.890;5.930;2022-11-04T12:50:17;94818.09;;;7.86;100.00
49841;BME280;35738;49.890;5.930;2022-11-04T12:53:05;94822.09;;;7.89;100.00
49841;BME280;35738;49.890;5.930;2022-11-04T13:01:27;94816.94;;;8.20;100.00
49841;BME280;35738;49.890;5.930;2022-11-04T13:04:24;94819.34;;;8.22;100.00
49841;BME280;35738;49.890;5.930;2022-11-04T13:06:55;94825.09;;;8.08;100.00
49841;BME280;35738;49.890;5.930;2022-11-04T13:12:13;94826.69;;;8.09;100.00
49841;BME280;35738;49.890;5.930;2022-11-04T13:14:46;94820.31;;;8.05;100.00
49841;BME280;35738;49.890;5.930;2022-11-04T13:17:18;94826.47;;;8.14;100.00
49841;BME280;35738;49.890;5.930;2022-11-04T13:19:53;94832.28;;;8.01;100.00
49841;BME280;35738;49.890;5.930;2022-11-04T13:22:28;94832.50;;;7.95;100.00
49841;BME280;35738;49.890;5.930;2022-11-04T13:27:44;94841.63;;;8.00;100.00
49841;BME280;35738;49.890;5.930;2022-11-04T13:38:16;94849.13;;;7.90;100.00
49841;BME280;35738;49.890;5.930;2022-11-04T13:43:45;94859.16;;;7.86;100.00
49841;BME280;35738;49.890;5.930;2022-11-04T13:46:19;94864.19;;;7.96;100.00
49841;BME280;35738;49.890;5.930;2022-11-04T13:49:02;94876.97;;;7.92;100.00
49841;BME280;35738;49.890;5.930;2022-11-04T13:51:42;94872.88;;;7.98;100.00
49841;BME280;35738;49.890;5.930;2022-11-04T13:54:29;94871.03;;;8.23;100.00
49841;BME280;35738;49.890;5.930;2022-11-04T14:02:57;94894.94;;;8.35;100.00
49841;BME280;35738;49.890;5.930;2022-11-04T14:18:48;94907.53;;;7.32;100.00
49841;BME280;35738;49.890;5.930;2022-11-04T14:21:24;94917.25;;;7.21;100.00
49841;BME280;35738;49.890;5.930;2022-11-04T14:23:56;94917.78;;;7.14;100.00
49841;BME280;35738;49.890;5.930;2022-11-04T14:26:28;94916.03;;;7.10;100.00
49841;BME280;35738;49.890;5.930;2022-11-04T14:29:18;94917.38;;;7.04;100.00
49841;BME280;35738;49.890;5.930;2022-11-04T14:32:10;94915.63;;;6.99;100.00
49841;BME280;35738;49.890;5.930;2022-11-04T14:34:37;94921.91;;;6.99;100.00
49841;BME280;35738;49.890;5.930;2022-11-04T14:37:20;94922.56;;;6.96;100.00
49841;BME280;35738;49.890;5.930;2022-11-04T14:39:56;94926.56;;;6.99;100.00
49841;BME280;35738;49.890;5.930;2022-11-04T14:42:46;94929.28;;;6.99;100.00
49841;BME280;35738;49.890;5.930;2022-11-04T14:45:17;94939.56;;;7.02;100.00
49841;BME280;35738;49.890;5.930;2022-11-04T14:47:49;94944.56;;;7.00;100.00
49841;BME280;35738;49.890;5.930;2022-11-04T14:50:20;94944.41;;;6.96;100.00
49841;BME280;35738;49.890;5.930;2022-11-04T14:53:09;94951.16;;;6.99;100.00
49841;BME280;35738;49.890;5.930;2022-11-04T14:55:40;94959.66;;;7.06;100.00
49841;BME280;35738;49.890;5.930;2022-11-04T14:58:25;94959.50;;;7.03;100.00
49841;BME280;35738;49.890;5.930;2022-11-04T15:00:57;94968.25;;;6.87;100.00
49841;BME280;35738;49.890;5.930;2022-11-04T15:03:27;94969.75;;;6.67;100.00
49841;BME280;35738;49.890;5.930;2022-11-04T15:06:26;94983.13;;;6.60;100.00
49841;BME280;35738;49.890;5.930;2022-11-04T15:09:20;94983.00;;;6.48;100.00
49841;BME280;35738;49.890;5.930;2022-11-04T15:11:47;94988.94;;;6.50;100.00
49841;BME280;35738;49.890;5.930;2022-11-04T15:14:35;94993.44;;;6.46;100.00
49841;BME280;35738;49.890;5.930;2022-11-04T15:17:03;94996.66;;;6.48;100.00
49841;BME280;35738;49.890;5.930;2022-11-04T15:19:32;95001.13;;;6.53;100.00
49841;BME280;35738;49.890;5.930;2022-11-04T15:22:00;95004.19;;;6.51;100.00
49841;BME280;35738;49.890;5.930;2022-11-04T15:24:28;95011.25;;;6.52;100.00
49841;BME280;35738;49.890;5.930;2022-11-04T15:27:03;95007.88;;;6.55;100.00
49841;BME280;35738;49.890;5.930;2022-11-04T15:29:31;95008.38;;;6.49;100.00
49841;BME280;35738;49.890;5.930;2022-11-04T15:32:03;95023.16;;;6.56;100.00
49841;BME280;35738;49.890;5.930;2022-11-04T15:34:32;95022.50;;;6.59;100.00
49841;BME280;35738;49.890;5.930;2022-11-04T15:37:03;95035.38;;;6.50;100.00
49841;BME280;35738;49.890;5.930;2022-11-04T15:39:43;95032.16;;;6.48;100.00
49841;BME280;35738;49.890;5.930;2022-11-04T15:42:17;95041.00;;;6.45;100.00
49841;BME280;35738;49.890;5.930;2022-11-04T15:45:27;95057.56;;;6.40;100.00
49841;BME280;35738;49.890;5.930;2022-11-04T15:48:47;95044.88;;;6.27;100.00
49841;BME280;35738;49.890;5.930;2022-11-04T15:51:21;95055.97;;;6.13;100.00
49841;BME280;35738;49.890;5.930;2022-11-04T15:54:01;95063.66;;;6.11;100.00
49841;BME280;35738;49.890;5.930;2022-11-04T15:56:51;95059.81;;;6.21;100.00
49841;BME280;35738;49.890;5.930;2022-11-04T15:59:27;95062.22;;;6.22;100.00